createdAt,value
2018-12-19T00:02:25.794Z,16.40
2018-12-19T00:04:54.936Z,17.60
2018-12-19T00:07:24.826Z,18.43
2018-12-19T00:09:54.327Z,17.50
2018-12-19T00:12:23.397Z,16.87
2018-12-19T00:14:56.439Z,17.83
2018-12-19T00:17:25.456Z,17.53
2018-12-19T00:19:54.299Z,17.53
2018-12-19T00:22:23.210Z,18.03
2018-12-19T00:24:52.088Z,17.13
2018-12-19T00:27:20.583Z,18.63
2018-12-19T00:29:49.093Z,18.70
2018-12-19T00:32:17.966Z,18.47
2018-12-19T00:34:47.521Z,18.93
2018-12-19T00:37:16.410Z,17.20
2018-12-19T00:39:45.724Z,18.50
2018-12-19T00:42:15.102Z,19.60
2018-12-19T00:44:44.452Z,18.77
2018-12-19T00:47:13.204Z,19.20
2018-12-19T00:49:46.137Z,17.97
2018-12-19T00:52:15.140Z,19.73
2018-12-19T00:54:44.338Z,19.17
2018-12-19T00:57:14.319Z,19.40
2018-12-19T00:59:43.110Z,19.40
2018-12-19T01:02:12.326Z,19.90
2018-12-19T01:04:40.997Z,19.20
2018-12-19T01:07:10.539Z,20.83
2018-12-19T01:09:40.209Z,18.87
2018-12-19T01:12:09.797Z,19.00
2018-12-19T01:14:40.171Z,19.10
2018-12-19T01:17:09.098Z,19.27
2018-12-19T01:19:37.603Z,20.93
2018-12-19T01:22:06.462Z,20.63
2018-12-19T01:24:35.292Z,21.23
2018-12-19T01:27:04.190Z,19.90
2018-12-19T01:29:33.794Z,20.90
2018-12-19T01:32:02.559Z,20.47
2018-12-19T01:34:31.490Z,21.13
2018-12-19T01:37:00.511Z,21.93
2018-12-19T01:39:30.320Z,20.90
2018-12-19T01:41:59.215Z,21.07
2018-12-19T01:44:27.747Z,21.83
2018-12-19T01:46:56.347Z,22.30
2018-12-19T01:49:25.365Z,21.47
2018-12-19T01:51:54.582Z,21.93
2018-12-19T01:54:24.019Z,21.63
2018-12-19T01:56:52.494Z,22.17
2018-12-19T01:59:20.993Z,21.97
2018-12-19T02:01:49.505Z,22.23
2018-12-19T02:04:17.998Z,21.10
2018-12-19T02:06:47.495Z,23.20
2018-12-19T02:09:17.128Z,20.27
2018-12-19T02:11:45.927Z,19.90
2018-12-19T02:14:15.071Z,22.00
2018-12-19T02:16:43.958Z,22.00
2018-12-19T02:19:13.360Z,22.17
2018-12-19T02:21:43.342Z,22.10
2018-12-19T02:24:12.571Z,22.30
2018-12-19T02:26:41.214Z,21.73
2018-12-19T02:29:09.837Z,20.43
2018-12-19T02:31:39.123Z,21.27
2018-12-19T02:34:07.734Z,20.80
2018-12-19T02:36:36.304Z,20.73
2018-12-19T02:39:07.527Z,21.47
2018-12-19T02:41:36.335Z,22.83
2018-12-19T02:44:05.102Z,20.50
2018-12-19T02:46:34.394Z,20.97
2018-12-19T02:49:02.927Z,21.67
2018-12-19T02:51:32.503Z,20.47
2018-12-19T02:54:01.012Z,20.13
2018-12-19T02:56:30.558Z,20.73
2018-12-19T02:58:59.442Z,21.17
2018-12-19T03:01:28.036Z,22.00
2018-12-19T03:03:56.574Z,21.37
2018-12-19T03:06:26.447Z,21.63
2018-12-19T03:08:54.978Z,20.27
2018-12-19T03:11:23.543Z,20.00
2018-12-19T03:13:54.276Z,21.53
2018-12-19T03:16:22.975Z,22.37
2018-12-19T03:18:51.504Z,21.20
2018-12-19T03:21:20.067Z,22.13
2018-12-19T03:23:48.585Z,20.63
2018-12-19T03:26:17.476Z,20.60
2018-12-19T03:28:52.788Z,19.97
2018-12-19T03:31:21.282Z,20.20
2018-12-19T03:33:49.775Z,18.97
2018-12-19T03:36:18.881Z,19.37
2018-12-19T03:38:47.415Z,21.33
2018-12-19T03:41:15.909Z,18.23
2018-12-19T03:43:44.444Z,19.10
2018-12-19T03:46:12.961Z,18.87
2018-12-19T03:48:46.794Z,18.43
2018-12-19T03:51:15.314Z,18.50
2018-12-19T03:53:43.842Z,19.23
2018-12-19T03:56:12.710Z,18.80
2018-12-19T03:58:41.192Z,18.33
2018-12-19T04:01:12.619Z,17.43
2018-12-19T04:03:41.156Z,19.07
2018-12-19T04:06:09.641Z,16.47
2018-12-19T04:08:38.723Z,16.60
2018-12-19T04:11:07.580Z,16.57
2018-12-19T04:13:36.126Z,17.50
2018-12-19T04:16:04.739Z,16.37
2018-12-19T04:18:33.546Z,16.27
2018-12-19T04:21:02.067Z,16.57
2018-12-19T04:23:30.617Z,16.23
2018-12-19T04:25:59.135Z,14.97
2018-12-19T04:28:27.893Z,15.93
2018-12-19T04:30:56.459Z,15.90
2018-12-19T04:33:25.803Z,16.73
2018-12-19T04:35:55.448Z,16.00
2018-12-19T04:38:24.170Z,16.27
2018-12-19T04:40:53.648Z,14.90
2018-12-19T04:43:22.985Z,15.57
2018-12-19T04:45:51.572Z,16.17
2018-12-19T04:48:20.106Z,14.67
2018-12-19T04:50:48.651Z,14.53
2018-12-19T04:53:17.138Z,15.87
2018-12-19T04:55:45.704Z,15.10
2018-12-19T04:58:14.210Z,14.30
2018-12-19T05:00:43.692Z,15.20
2018-12-19T05:03:12.863Z,15.93
2018-12-19T05:05:41.395Z,15.17
2018-12-19T05:08:10.095Z,14.47
2018-12-19T05:10:38.660Z,15.27
2018-12-19T05:13:07.202Z,14.40
2018-12-19T05:15:35.817Z,14.33
2018-12-19T05:18:04.494Z,14.30
2018-12-19T05:20:33.326Z,14.47
2018-12-19T05:23:01.819Z,14.90
2018-12-19T05:25:30.327Z,14.73
2018-12-19T05:27:58.825Z,14.00
2018-12-19T05:30:27.345Z,13.33
2018-12-19T05:32:55.922Z,13.33
2018-12-19T05:35:24.422Z,13.63
2018-12-19T05:37:54.180Z,13.07
2018-12-19T05:40:24.547Z,12.40
2018-12-19T05:42:53.370Z,12.43
2018-12-19T05:45:21.903Z,12.83
2018-12-19T05:47:50.431Z,12.73
2018-12-19T05:50:21.623Z,12.37
2018-12-19T05:52:50.504Z,11.67
2018-12-19T05:55:19.024Z,12.47
2018-12-19T05:57:47.525Z,11.90
2018-12-19T06:00:16.174Z,10.20
2018-12-19T06:02:44.679Z,11.23
2018-12-19T06:05:13.203Z,11.10
2018-12-19T06:07:43.639Z,12.27
2018-12-19T06:10:12.274Z,11.40
2018-12-19T06:12:40.795Z,11.60
2018-12-19T06:15:10.195Z,11.83
2018-12-19T06:17:38.714Z,11.33
2018-12-19T06:20:07.334Z,11.63
2018-12-19T06:22:36.755Z,11.60
2018-12-19T06:25:05.397Z,11.20
2018-12-19T06:27:33.918Z,11.10
2018-12-19T06:30:02.729Z,10.33
2018-12-19T06:32:32.118Z,10.93
2018-12-19T06:35:00.655Z,10.77
2018-12-19T06:37:29.599Z,10.50
2018-12-19T06:39:58.091Z,9.87
2018-12-19T06:42:26.586Z,10.43
2018-12-19T06:44:55.503Z,9.43
2018-12-19T06:47:24.115Z,10.07
2018-12-19T06:49:53.397Z,10.47
2018-12-19T06:52:22.609Z,10.57
2018-12-19T06:54:51.122Z,10.47
2018-12-19T06:57:19.776Z,9.93
2018-12-19T06:59:49.524Z,10.70
2018-12-19T07:02:19.673Z,10.30
2018-12-19T07:04:48.380Z,10.03
2018-12-19T07:07:16.938Z,9.50
2018-12-19T07:09:45.398Z,10.73
2018-12-19T07:12:14.215Z,9.80
2018-12-19T07:14:43.890Z,10.37
2018-12-19T07:17:13.400Z,10.47
2018-12-19T07:19:42.527Z,10.63
2018-12-19T07:22:11.043Z,10.10
2018-12-19T07:24:40.404Z,10.43
2018-12-19T07:27:10.278Z,10.20
2018-12-19T07:29:39.910Z,9.57
2018-12-19T07:32:09.460Z,11.23
2018-12-19T07:34:44.037Z,9.93
2018-12-19T07:37:09.581Z,10.03
2018-12-19T07:39:38.377Z,9.67
2018-12-19T07:42:07.833Z,10.17
2018-12-19T07:44:36.707Z,10.07
2018-12-19T07:47:05.504Z,9.70
2018-12-19T07:49:34.035Z,9.20
2018-12-19T07:52:02.605Z,9.70
2018-12-19T07:54:31.461Z,11.17
2018-12-19T07:57:00.272Z,10.40
2018-12-19T07:59:29.463Z,9.70
2018-12-19T08:01:58.658Z,10.97
2018-12-19T08:04:29.049Z,10.43
2018-12-19T08:06:57.944Z,10.37
2018-12-19T08:09:26.603Z,11.73
2018-12-19T08:11:55.490Z,10.47
2018-12-19T08:14:24.962Z,10.03
2018-12-19T08:16:54.565Z,10.70
2018-12-19T08:19:23.207Z,10.67
2018-12-19T08:21:52.617Z,10.20
2018-12-19T08:24:22.897Z,9.57
2018-12-19T08:26:52.291Z,11.27
2018-12-19T08:29:22.584Z,16.03
2018-12-19T08:31:51.902Z,11.70
2018-12-19T08:34:20.824Z,10.47
2018-12-19T08:36:50.598Z,10.60
2018-12-19T08:39:20.431Z,9.97
2018-12-19T08:41:49.969Z,10.17
2018-12-19T08:44:19.411Z,10.50
2018-12-19T08:46:48.667Z,9.50
2018-12-19T08:52:39.598Z,9.80
2018-12-19T08:55:08.901Z,10.07
2018-12-19T08:57:38.056Z,9.80
2018-12-19T09:00:09.744Z,9.63
2018-12-19T09:02:38.499Z,9.80
2018-12-19T09:05:07.031Z,9.63
2018-12-19T09:07:35.556Z,8.70
2018-12-19T09:10:05.587Z,10.30
2018-12-19T09:12:34.133Z,9.20
2018-12-19T09:15:02.656Z,9.70
2018-12-19T09:17:31.259Z,9.37
2018-12-19T09:20:00.156Z,8.80
2018-12-19T09:22:28.855Z,8.97
2018-12-19T09:24:57.409Z,9.13
2018-12-19T09:27:26.015Z,10.13
2018-12-19T09:29:54.563Z,10.00
2018-12-19T09:32:23.099Z,9.03
2018-12-19T09:34:51.667Z,9.13
2018-12-19T09:37:20.191Z,10.13
2018-12-19T09:39:48.737Z,9.77
2018-12-19T09:42:17.230Z,9.37
2018-12-19T09:44:45.723Z,9.50
2018-12-19T09:47:14.248Z,9.00
2018-12-19T09:49:42.735Z,9.87
2018-12-19T09:52:11.447Z,9.37
2018-12-19T09:54:40.001Z,10.33
2018-12-19T09:57:08.526Z,9.27
2018-12-19T09:59:37.053Z,9.17
2018-12-19T10:02:06.292Z,15.63
2018-12-19T10:04:34.778Z,38.30
2018-12-19T10:07:03.380Z,14.90
2018-12-19T10:09:31.885Z,17.00
2018-12-19T10:12:00.445Z,15.47
2018-12-19T10:14:28.989Z,14.70
2018-12-19T10:16:57.621Z,21.77
2018-12-19T10:19:26.250Z,21.70
2018-12-19T10:21:54.831Z,22.00
2018-12-19T10:24:27.589Z,21.53
2018-12-19T10:26:56.129Z,19.47
2018-12-19T10:29:24.667Z,23.30
2018-12-19T10:31:53.235Z,43.73
2018-12-19T10:34:21.874Z,27.03
2018-12-19T10:36:50.413Z,10.40
2018-12-19T10:39:18.906Z,8.83
2018-12-19T10:41:47.361Z,9.60
2018-12-19T10:44:16.282Z,8.60
2018-12-19T10:46:44.997Z,9.33
2018-12-19T10:49:13.489Z,9.33
2018-12-19T10:51:41.982Z,8.90
2018-12-19T10:54:10.472Z,8.90
2018-12-19T10:56:38.964Z,9.67
2018-12-19T10:59:07.464Z,10.20
2018-12-19T11:01:36.039Z,9.47
2018-12-19T11:04:04.752Z,10.30
2018-12-19T11:06:33.265Z,9.73
2018-12-19T11:09:01.814Z,10.50
2018-12-19T11:11:32.436Z,10.23
2018-12-19T11:14:00.902Z,9.67
2018-12-19T11:16:29.409Z,9.00
2018-12-19T11:18:57.980Z,9.53
2018-12-19T11:21:26.490Z,9.10
2018-12-19T11:23:55.105Z,8.70
2018-12-19T11:26:23.581Z,9.60
2018-12-19T11:28:52.147Z,11.20
2018-12-19T11:31:20.615Z,10.40
2018-12-19T11:33:49.212Z,9.93
2018-12-19T11:36:17.705Z,10.33
2018-12-19T11:38:46.210Z,10.10
2018-12-19T11:41:14.717Z,9.33
2018-12-19T11:43:43.202Z,10.67
2018-12-19T11:46:11.737Z,10.03
2018-12-19T11:48:40.324Z,10.83
2018-12-19T11:51:08.858Z,10.33
2018-12-19T11:53:37.457Z,10.90
2018-12-19T11:56:06.143Z,10.70
2018-12-19T11:58:34.709Z,9.43
2018-12-19T12:01:03.227Z,9.00
2018-12-19T12:03:31.946Z,8.37
2018-12-19T12:06:00.462Z,10.17
2018-12-19T12:08:28.986Z,11.27
2018-12-19T12:10:57.534Z,11.70
2018-12-19T12:13:26.070Z,11.13
2018-12-19T12:15:54.645Z,11.13
2018-12-19T12:18:23.126Z,11.53
2018-12-19T12:20:51.644Z,11.80
2018-12-19T12:23:20.165Z,14.30
2018-12-19T12:25:48.670Z,12.80
2018-12-19T12:28:17.301Z,13.27
2018-12-19T12:30:45.819Z,13.33
2018-12-19T12:33:14.813Z,13.80
2018-12-19T12:35:43.787Z,11.50
2018-12-19T12:38:12.304Z,13.30
2018-12-19T12:40:40.860Z,14.97
2018-12-19T12:43:09.380Z,25.07
2018-12-19T12:45:37.846Z,14.93
2018-12-19T12:48:06.404Z,12.27
2018-12-19T12:50:35.025Z,12.03
2018-12-19T12:53:03.575Z,15.67
2018-12-19T12:55:32.112Z,17.63
2018-12-19T12:58:00.657Z,14.40
2018-12-19T13:00:29.160Z,15.70
2018-12-19T13:02:57.631Z,15.27
2018-12-19T13:05:26.144Z,14.33
2018-12-19T13:07:54.641Z,14.93
2018-12-19T13:10:23.149Z,12.17
2018-12-19T13:12:51.692Z,18.83
2018-12-19T13:15:25.670Z,18.53
2018-12-19T13:17:54.553Z,15.40
2018-12-19T13:20:23.050Z,18.33
2018-12-19T13:22:51.576Z,18.23
2018-12-19T13:25:20.170Z,17.90
2018-12-19T13:27:48.966Z,31.03
2018-12-19T13:30:17.486Z,23.13
2018-12-19T13:32:46.021Z,16.07
2018-12-19T13:35:14.639Z,15.33
2018-12-19T13:37:43.146Z,15.70
2018-12-19T13:40:11.702Z,15.57
2018-12-19T13:42:40.206Z,17.43
2018-12-19T13:45:08.838Z,16.20
2018-12-19T13:47:43.859Z,16.37
2018-12-19T13:50:12.352Z,18.83
2018-12-19T13:52:40.948Z,19.40
2018-12-19T13:55:09.477Z,19.43
2018-12-19T13:57:38.014Z,18.43
2018-12-19T14:00:09.486Z,16.20
2018-12-19T14:02:37.964Z,16.07
2018-12-19T14:05:06.618Z,15.83
2018-12-19T14:07:35.199Z,16.20
2018-12-19T14:10:04.536Z,16.47
2018-12-19T14:12:33.115Z,17.50
2018-12-19T14:15:01.745Z,16.23
2018-12-19T14:17:30.313Z,16.63
2018-12-19T14:19:58.899Z,16.67
2018-12-19T14:22:27.421Z,16.43
2018-12-19T14:24:56.140Z,14.87
2018-12-19T14:27:24.656Z,17.00
2018-12-19T14:29:53.195Z,16.87
2018-12-19T14:32:21.748Z,16.77
2018-12-19T14:34:51.161Z,19.97
2018-12-19T14:37:19.709Z,20.00
2018-12-19T14:39:48.274Z,22.13
2018-12-19T14:42:19.212Z,21.13
2018-12-19T14:44:47.334Z,29.77
2018-12-19T14:47:16.074Z,25.63
2018-12-19T14:49:44.652Z,25.63
2018-12-19T14:52:13.248Z,22.40
2018-12-19T14:54:41.788Z,21.77
2018-12-19T14:57:10.309Z,24.33
2018-12-19T14:59:38.924Z,24.50
2018-12-19T15:02:07.496Z,18.43
2018-12-19T15:04:36.030Z,15.90
2018-12-19T15:07:04.763Z,14.27
2018-12-19T15:09:33.320Z,15.17
2018-12-19T15:12:02.817Z,14.10
2018-12-19T15:14:31.389Z,14.57
2018-12-19T15:17:00.058Z,14.37
2018-12-19T15:19:28.638Z,14.03
2018-12-19T15:21:57.205Z,12.90
2018-12-19T15:24:25.823Z,13.23
2018-12-19T15:26:54.390Z,14.10
2018-12-19T15:29:23.077Z,13.23
2018-12-19T15:31:51.861Z,13.67
2018-12-19T15:34:20.493Z,16.90
2018-12-19T15:36:49.047Z,15.97
2018-12-19T15:39:17.757Z,15.00
2018-12-19T15:41:46.278Z,15.07
2018-12-19T15:44:14.867Z,14.07
2018-12-19T15:46:43.467Z,13.47
2018-12-19T15:49:12.107Z,13.80
2018-12-19T15:51:40.671Z,14.20
2018-12-19T15:54:09.903Z,11.93
2018-12-19T15:56:38.520Z,12.90
2018-12-19T15:59:07.054Z,14.30
2018-12-19T16:01:35.612Z,13.37
2018-12-19T16:04:04.168Z,13.37
2018-12-19T16:06:32.702Z,13.23
2018-12-19T16:09:01.550Z,12.30
2018-12-19T16:11:30.037Z,13.00
2018-12-19T16:13:58.609Z,13.73
2018-12-19T16:16:27.151Z,14.23
2018-12-19T16:18:55.649Z,13.33
2018-12-19T16:21:24.144Z,12.27
2018-12-19T16:23:52.682Z,14.10
2018-12-19T16:26:21.864Z,13.60
2018-12-19T16:28:50.981Z,14.77
2018-12-19T16:31:19.550Z,12.77
2018-12-19T16:33:48.982Z,14.10
2018-12-19T16:36:17.550Z,15.80
2018-12-19T16:38:46.127Z,20.33
2018-12-19T16:41:14.802Z,18.93
2018-12-19T16:43:43.569Z,31.47
2018-12-19T16:46:12.157Z,25.97
2018-12-19T16:48:40.771Z,17.87
2018-12-19T16:51:09.987Z,19.97
2018-12-19T16:53:38.735Z,23.27
2018-12-19T16:56:09.657Z,27.80
2018-12-19T16:58:38.343Z,22.43
2018-12-19T17:01:08.205Z,21.60
2018-12-19T17:03:36.806Z,21.47
2018-12-19T17:06:05.723Z,23.50
2018-12-19T17:08:34.416Z,19.50
2018-12-19T17:11:03.125Z,22.03
2018-12-19T17:13:31.690Z,22.10
2018-12-19T17:16:00.242Z,30.00
2018-12-19T17:18:28.858Z,26.60
2018-12-19T17:20:57.400Z,21.80
2018-12-19T17:23:25.972Z,16.83
2018-12-19T17:25:54.502Z,16.70
2018-12-19T17:28:23.185Z,23.50
2018-12-19T17:30:51.745Z,21.83
2018-12-19T17:33:20.429Z,21.20
2018-12-19T17:35:49.006Z,17.63
2018-12-19T17:38:17.915Z,20.40
2018-12-19T17:40:46.734Z,24.43
2018-12-19T17:43:15.394Z,34.30
2018-12-19T17:45:44.008Z,23.43
2018-12-19T17:48:12.594Z,24.07
2018-12-19T17:50:41.283Z,26.93
2018-12-19T17:53:09.832Z,25.80
2018-12-19T17:55:38.522Z,20.17
2018-12-19T17:58:07.323Z,17.93
2018-12-19T18:00:35.928Z,18.70
2018-12-19T18:03:05.109Z,17.83
2018-12-19T18:05:33.959Z,16.77
2018-12-19T18:08:02.479Z,63.87
2018-12-19T18:10:31.267Z,23.80
2018-12-19T18:13:05.979Z,22.00
2018-12-19T18:15:30.501Z,17.20
2018-12-19T18:17:59.803Z,25.00
2018-12-19T18:20:28.434Z,20.17
2018-12-19T18:22:57.028Z,18.83
2018-12-19T18:25:25.626Z,17.53
2018-12-19T18:27:54.167Z,19.07
2018-12-19T18:30:37.626Z,20.67
2018-12-19T18:33:06.342Z,18.53
2018-12-19T18:35:34.967Z,18.10
2018-12-19T18:38:03.645Z,17.47
2018-12-19T18:40:34.526Z,19.87
2018-12-19T18:43:03.247Z,20.77
2018-12-19T18:45:31.832Z,20.97
2018-12-19T18:48:00.540Z,20.33
2018-12-19T18:50:29.300Z,20.03
2018-12-19T18:52:57.963Z,21.80
2018-12-19T18:55:26.557Z,19.03
2018-12-19T18:57:55.231Z,18.87
2018-12-19T19:00:31.714Z,19.37
2018-12-19T19:03:02.335Z,17.80
2018-12-19T19:05:30.970Z,16.50
2018-12-19T19:07:59.572Z,20.17
2018-12-19T19:10:28.297Z,16.97
2018-12-19T19:12:57.074Z,17.27
2018-12-19T19:15:25.763Z,15.97
2018-12-19T19:17:54.311Z,16.63
2018-12-19T19:20:23.039Z,17.67
2018-12-19T19:22:51.650Z,16.73
2018-12-19T19:25:20.380Z,16.30
2018-12-19T19:27:49.088Z,26.90
2018-12-19T19:30:17.745Z,55.63
2018-12-19T19:32:46.686Z,47.10
2018-12-19T19:35:15.640Z,41.53
2018-12-19T19:37:44.362Z,27.97
2018-12-19T19:40:13.143Z,20.23
2018-12-19T19:42:41.920Z,19.20
2018-12-19T19:45:10.785Z,18.80
2018-12-19T19:47:39.478Z,16.77
2018-12-19T19:52:47.175Z,18.70
2018-12-19T19:55:16.022Z,20.97
2018-12-19T19:57:44.612Z,21.13
2018-12-19T20:00:13.246Z,18.17
2018-12-19T20:02:41.974Z,21.07
2018-12-19T20:05:10.975Z,18.10
2018-12-19T20:07:42.126Z,19.63
2018-12-19T20:10:13.072Z,16.57
2018-12-19T20:12:41.845Z,17.80
2018-12-19T20:15:31.814Z,18.03
2018-12-19T20:18:00.543Z,17.80
2018-12-19T20:20:29.275Z,18.20
2018-12-19T20:22:58.054Z,16.53
2018-12-19T20:25:26.745Z,15.83
2018-12-19T20:27:55.436Z,15.53
2018-12-19T20:30:24.154Z,16.93
2018-12-19T20:32:53.014Z,16.27
2018-12-19T20:35:21.744Z,15.47
2018-12-19T20:37:50.587Z,16.57
2018-12-19T20:40:20.102Z,15.87
2018-12-19T20:42:48.821Z,17.10
2018-12-19T20:45:17.581Z,15.20
2018-12-19T20:47:46.162Z,15.03
2018-12-19T20:50:15.489Z,16.00
2018-12-19T20:52:44.121Z,14.90
2018-12-19T20:55:12.748Z,16.30
2018-12-19T20:57:41.549Z,16.67
2018-12-19T21:00:10.408Z,16.20
2018-12-19T21:02:39.469Z,15.93
2018-12-19T21:05:08.208Z,15.23
2018-12-19T21:07:36.787Z,17.50
2018-12-19T21:10:06.423Z,15.53
2018-12-19T21:12:35.309Z,17.67
2018-12-19T21:15:04.338Z,19.00
2018-12-19T21:17:38.275Z,17.27
2018-12-19T21:20:07.440Z,16.90
2018-12-19T21:22:36.735Z,16.60
2018-12-19T21:25:05.691Z,14.60
2018-12-19T21:27:34.887Z,15.53
2018-12-19T21:30:04.306Z,15.40
2018-12-19T21:32:32.973Z,15.73
2018-12-19T21:35:01.839Z,19.47
2018-12-19T21:37:30.760Z,33.70
2018-12-19T21:39:59.520Z,26.60
2018-12-19T21:42:28.100Z,17.57
2018-12-19T21:44:56.748Z,20.67
2018-12-19T21:47:25.414Z,22.80
2018-12-19T21:49:54.386Z,21.93
2018-12-19T21:52:22.978Z,23.67
2018-12-19T21:54:51.862Z,23.67
2018-12-19T21:57:21.255Z,24.37
2018-12-19T21:59:50.368Z,22.00
2018-12-19T22:02:19.765Z,21.27
2018-12-19T22:04:49.076Z,21.13
2018-12-19T22:07:18.097Z,19.60
2018-12-19T22:09:46.947Z,19.20
2018-12-19T22:12:15.818Z,21.07
2018-12-19T22:14:44.700Z,20.10
2018-12-19T22:17:18.894Z,19.13
2018-12-19T22:19:47.621Z,18.77
2018-12-19T22:22:16.269Z,19.80
2018-12-19T22:24:45.278Z,19.33
2018-12-19T22:27:13.968Z,20.33
2018-12-19T22:29:43.445Z,22.47
2018-12-19T22:32:12.012Z,20.87
2018-12-19T22:34:41.616Z,20.57
2018-12-19T22:37:10.240Z,20.03
2018-12-19T22:39:38.841Z,20.73
2018-12-19T22:42:07.660Z,18.47
2018-12-19T22:44:36.383Z,19.53
2018-12-19T22:47:05.252Z,23.90
2018-12-19T22:49:33.888Z,20.53
2018-12-19T22:52:02.441Z,17.60
2018-12-19T22:54:31.033Z,18.27
2018-12-19T22:56:59.597Z,18.73
2018-12-19T22:59:28.125Z,17.77
2018-12-19T23:02:02.291Z,18.23
2018-12-19T23:04:30.852Z,18.60
2018-12-19T23:06:59.439Z,17.27
2018-12-19T23:09:28.021Z,18.63
2018-12-19T23:11:56.608Z,18.67
2018-12-19T23:14:25.132Z,17.63
2018-12-19T23:16:53.879Z,18.47
2018-12-19T23:19:22.665Z,18.33
2018-12-19T23:21:51.373Z,17.13
2018-12-19T23:24:20.086Z,17.37
2018-12-19T23:26:48.756Z,19.00
2018-12-19T23:29:18.072Z,20.03
2018-12-19T23:31:46.687Z,18.93
2018-12-19T23:34:15.182Z,19.73
2018-12-19T23:36:43.810Z,20.53
2018-12-19T23:39:12.454Z,19.43
2018-12-19T23:41:41.194Z,21.93
2018-12-19T23:44:09.779Z,20.90
2018-12-19T23:46:38.387Z,20.77
2018-12-19T23:49:07.050Z,20.50
2018-12-19T23:51:36.588Z,20.33
2018-12-19T23:54:05.217Z,18.77
2018-12-19T23:56:33.899Z,19.23
2018-12-19T23:59:02.468Z,19.03
